Time;durP1;ratioP1;P1;durP2;ratioP2;P2;SDS_P1;SDS_P2;PMS_P1;PMS_P2;Temp;Humidity;BMP_temperature;BMP_pressure;BME280_temperature;BME280_humidity;BME280_pressure;Samples;Min_cycle;Max_cycle;Signal;HPM_P1;HPM_P2
2023/07/16 00:02:03;;;;;;;5.50;2.90;;;18.90;99.90;;;;;;5016378;28;20202;-74
2023/07/16 00:04:33;;;;;;;10.35;2.17;;;18.90;99.90;;;;;;5026621;28;20210;-75
2023/07/16 00:07:02;;;;;;;6.97;2.53;;;18.90;99.90;;;;;;5022507;28;20296;-73
2023/07/16 00:09:29;;;;;;;5.35;2.30;;;18.90;99.90;;;;;;5026331;28;20268;-74
2023/07/16 00:11:56;;;;;;;2.85;2.08;;;18.90;99.90;;;;;;5022575;28;20221;-75
2023/07/16 00:14:23;;;;;;;7.18;2.55;;;18.90;99.90;;;;;;5026170;28;20550;-74
2023/07/16 00:16:50;;;;;;;5.63;2.55;;;18.90;99.90;;;;;;5015739;28;20210;-75
2023/07/16 00:19:17;;;;;;;5.25;2.08;;;18.90;99.90;;;;;;5019718;28;20228;-74
2023/07/16 00:21:44;;;;;;;3.40;2.15;;;18.90;99.90;;;;;;5028127;28;20205;-75
2023/07/16 00:24:10;;;;;;;3.30;2.00;;;18.90;99.90;;;;;;5028478;28;20264;-75
2023/07/16 00:26:37;;;;;;;6.63;2.60;;;18.80;99.90;;;;;;5028156;28;20249;-74
2023/07/16 00:29:04;;;;;;;3.40;2.10;;;18.80;99.90;;;;;;5021518;28;20252;-74
2023/07/16 00:31:31;;;;;;;6.43;2.60;;;18.80;99.90;;;;;;5026449;28;20774;-75
2023/07/16 00:33:58;;;;;;;7.47;2.40;;;18.80;99.90;;;;;;5019667;28;20224;-76
2023/07/16 00:36:24;;;;;;;6.18;2.35;;;18.80;99.90;;;;;;5025142;28;20210;-74
2023/07/16 00:38:51;;;;;;;6.00;2.03;;;18.80;99.90;;;;;;5027208;28;20204;-75
2023/07/16 00:41:18;;;;;;;5.35;2.10;;;18.80;99.90;;;;;;5027503;28;20301;-74
2023/07/16 00:43:45;;;;;;;4.85;2.33;;;18.80;99.90;;;;;;5011446;28;20265;-75
2023/07/16 00:46:12;;;;;;;2.53;1.77;;;18.90;99.90;;;;;;4994523;28;20215;-75
2023/07/16 00:48:41;;;;;;;5.35;2.15;;;18.90;99.90;;;;;;5009507;28;20203;-74
2023/07/16 00:51:09;;;;;;;4.50;2.10;;;18.90;99.90;;;;;;5008649;28;20261;-73
2023/07/16 00:53:36;;;;;;;4.57;2.13;;;18.90;99.90;;;;;;5010258;28;20665;-74
2023/07/16 00:56:03;;;;;;;5.03;2.10;;;18.90;99.90;;;;;;5005740;28;20268;-76
2023/07/16 00:58:29;;;;;;;3.60;2.05;;;18.90;99.90;;;;;;5006151;28;20264;-74
2023/07/16 01:00:56;;;;;;;4.72;1.90;;;18.90;99.90;;;;;;5005673;28;20214;-75
2023/07/16 01:03:23;;;;;;;6.35;2.50;;;18.80;99.90;;;;;;5010448;28;20210;-76
2023/07/16 01:06:14;;;;;;;4.97;2.30;;;18.80;99.90;;;;;;5006205;28;20285;-76
2023/07/16 01:08:56;;;;;;;5.47;1.70;;;18.70;99.90;;;;;;5010589;28;20237;-74
2023/07/16 01:11:24;;;;;;;4.38;1.95;;;18.70;99.90;;;;;;5006478;28;20230;-74
2023/07/16 01:13:52;;;;;;;2.63;1.70;;;18.70;99.90;;;;;;4987605;28;20604;-75
2023/07/16 01:16:24;;;;;;;5.20;1.92;;;18.70;99.90;;;;;;5010267;28;20265;-75
2023/07/16 01:18:51;;;;;;;4.45;1.85;;;18.70;99.90;;;;;;5007438;28;20587;-74
2023/07/16 01:21:20;;;;;;;4.93;2.08;;;18.70;99.90;;;;;;5011013;28;20206;-73
2023/07/16 01:24:00;;;;;;;4.63;1.90;;;18.60;99.90;;;;;;5006225;28;20299;-74
2023/07/16 01:26:50;;;;;;;5.20;1.90;;;18.60;99.90;;;;;;5010620;28;20214;-73
2023/07/16 01:29:34;;;;;;;6.60;2.20;;;18.60;99.90;;;;;;5011092;28;20211;-73
2023/07/16 01:32:04;;;;;;;5.88;2.13;;;18.60;99.90;;;;;;5001960;28;20230;-75
2023/07/16 01:34:34;;;;;;;4.32;2.03;;;18.60;99.90;;;;;;5007640;28;20214;-74
2023/07/16 01:37:02;;;;;;;5.30;2.17;;;18.50;99.90;;;;;;5009555;28;20644;-74
2023/07/16 01:39:30;;;;;;;4.82;2.35;;;18.50;99.90;;;;;;5010836;28;20214;-75
2023/07/16 01:41:57;;;;;;;5.18;2.20;;;18.40;99.90;;;;;;5010371;28;20244;-75
2023/07/16 01:44:24;;;;;;;3.47;2.22;;;18.30;99.90;;;;;;5006125;28;20688;-74
2023/07/16 01:47:05;;;;;;;4.93;2.70;;;18.30;99.90;;;;;;5008663;28;20214;-74
2023/07/16 01:49:32;;;;;;;5.95;3.33;;;18.30;99.90;;;;;;4984784;28;20596;-75
2023/07/16 01:52:03;;;;;;;7.55;2.53;;;18.30;99.90;;;;;;4987703;28;20227;-74
2023/07/16 01:54:30;;;;;;;4.22;2.42;;;18.30;99.90;;;;;;5008883;28;20218;-74
2023/07/16 01:56:57;;;;;;;6.07;2.50;;;18.30;99.90;;;;;;4991981;28;20301;-74
2023/07/16 01:59:24;;;;;;;5.40;2.45;;;18.20;99.90;;;;;;5009069;28;20203;-74
2023/07/16 02:01:51;;;;;;;7.43;2.28;;;18.30;99.90;;;;;;5007895;28;20262;-76
2023/07/16 02:04:18;;;;;;;7.97;2.30;;;18.20;99.90;;;;;;5003710;28;20274;-74
2023/07/16 02:06:45;;;;;;;6.47;2.25;;;18.20;99.90;;;;;;4992377;28;20465;-74
2023/07/16 02:09:12;;;;;;;4.30;2.50;;;18.20;99.90;;;;;;5009985;28;20583;-74
2023/07/16 02:11:39;;;;;;;6.88;2.20;;;18.10;99.90;;;;;;4999439;28;20242;-74
2023/07/16 02:14:06;;;;;;;2.97;2.03;;;18.20;99.90;;;;;;5009716;28;20586;-74
2023/07/16 02:16:32;;;;;;;5.18;2.58;;;18.10;99.90;;;;;;5009027;28;20217;-74
2023/07/16 02:18:59;;;;;;;6.00;2.00;;;18.10;99.90;;;;;;5008771;28;20571;-74
2023/07/16 02:21:26;;;;;;;6.35;2.60;;;18.10;99.90;;;;;;5009839;28;20352;-74
2023/07/16 02:23:53;;;;;;;4.60;2.43;;;18.10;99.90;;;;;;5009237;28;20658;-74
2023/07/16 02:26:19;;;;;;;4.57;2.73;;;18.00;99.90;;;;;;5006727;28;20214;-75
2023/07/16 02:28:46;;;;;;;6.50;2.20;;;18.00;99.90;;;;;;5012682;28;20202;-75
2023/07/16 02:31:13;;;;;;;6.68;2.88;;;18.00;99.90;;;;;;5014498;28;20226;-75
2023/07/16 02:33:40;;;;;;;6.18;2.50;;;17.90;99.90;;;;;;5008196;28;20293;-74
2023/07/16 02:36:07;;;;;;;5.45;2.85;;;17.90;99.90;;;;;;5010765;28;20272;-74
2023/07/16 02:38:34;;;;;;;5.60;2.95;;;18.00;99.90;;;;;;5010549;28;20213;-74
2023/07/16 02:41:00;;;;;;;12.65;2.78;;;17.90;99.90;;;;;;5011467;28;20206;-74
2023/07/16 02:43:27;;;;;;;4.30;2.60;;;17.90;99.90;;;;;;5022475;28;20233;-74
2023/07/16 02:45:54;;;;;;;6.35;2.42;;;17.90;99.90;;;;;;5039761;28;20325;-75
2023/07/16 02:48:21;;;;;;;10.90;3.05;;;17.90;99.90;;;;;;5025897;28;20205;-74
2023/07/16 02:50:48;;;;;;;6.57;2.53;;;17.80;99.90;;;;;;5027028;28;20678;-74
2023/07/16 02:53:15;;;;;;;7.40;2.97;;;17.80;99.90;;;;;;5028734;28;20213;-73
2023/07/16 02:55:42;;;;;;;5.20;2.27;;;17.80;99.90;;;;;;5025624;28;20694;-74
2023/07/16 02:58:08;;;;;;;6.18;2.47;;;17.70;99.90;;;;;;5017592;28;20583;-74
2023/07/16 03:00:35;;;;;;;5.70;2.47;;;17.70;99.90;;;;;;5026788;28;20602;-75
2023/07/16 03:03:02;;;;;;;5.30;2.60;;;17.70;99.90;;;;;;5028723;28;20382;-74
2023/07/16 03:05:30;;;;;;;4.70;2.50;;;17.70;99.90;;;;;;5023946;28;20216;-73
2023/07/16 03:07:56;;;;;;;5.38;2.72;;;17.70;99.90;;;;;;5026890;28;20248;-74
2023/07/16 03:10:26;;;;;;;8.57;2.95;;;17.60;99.90;;;;;;5008590;28;20271;-74
2023/07/16 03:12:54;;;;;;;9.15;2.75;;;17.60;99.90;;;;;;5028327;28;20332;-74
2023/07/16 03:15:20;;;;;;;5.13;2.33;;;17.60;99.90;;;;;;5031686;28;20300;-74
2023/07/16 03:17:47;;;;;;;5.82;2.38;;;17.60;99.90;;;;;;5015699;28;20205;-74
2023/07/16 03:20:14;;;;;;;5.30;2.87;;;17.60;99.90;;;;;;5029031;28;20216;-73
2023/07/16 03:22:41;;;;;;;4.20;2.40;;;17.50;99.90;;;;;;5028717;28;20214;-74
2023/07/16 03:25:08;;;;;;;5.80;2.40;;;17.50;99.90;;;;;;5028286;28;20240;-74
2023/07/16 03:27:35;;;;;;;6.30;2.47;;;17.50;99.90;;;;;;5029924;28;20699;-73
2023/07/16 03:30:02;;;;;;;7.90;2.87;;;17.40;99.90;;;;;;5028518;28;20692;-74
2023/07/16 03:32:29;;;;;;;4.90;2.58;;;17.50;99.90;;;;;;5011010;28;20254;-74
2023/07/16 03:35:12;;;;;;;6.97;3.20;;;17.50;99.90;;;;;;5028931;28;20232;-73
2023/07/16 03:37:38;;;;;;;7.00;3.10;;;17.40;99.90;;;;;;5026926;28;20255;-75
2023/07/16 03:40:14;;;;;;;7.40;2.90;;;17.40;99.90;;;;;;5028214;28;20335;-74
2023/07/16 03:42:41;;;;;;;7.77;3.23;;;17.40;99.90;;;;;;5015586;28;20245;-73
2023/07/16 03:45:10;;;;;;;5.18;3.03;;;17.40;99.90;;;;;;5014241;28;20581;-75
2023/07/16 03:47:37;;;;;;;5.03;2.57;;;17.40;99.90;;;;;;5012346;28;20260;-73
2023/07/16 03:50:05;;;;;;;7.40;2.63;;;17.40;99.90;;;;;;5009934;28;20284;-75
2023/07/16 03:52:32;;;;;;;6.13;2.80;;;17.40;99.90;;;;;;5015290;28;20222;-74
2023/07/16 03:54:58;;;;;;;4.30;2.33;;;17.40;99.90;;;;;;5009114;28;20203;-75
2023/07/16 03:57:28;;;;;;;6.43;2.53;;;17.40;99.90;;;;;;5003672;28;20326;-73
2023/07/16 03:59:55;;;;;;;4.63;2.17;;;17.40;99.90;;;;;;5009018;28;20202;-75
2023/07/16 04:02:23;;;;;;;9.23;2.77;;;17.40;99.90;;;;;;5010750;28;20279;-76
2023/07/16 04:04:50;;;;;;;5.53;2.80;;;17.40;99.90;;;;;;5008753;28;20202;-76
2023/07/16 04:07:17;;;;;;;6.30;2.23;;;17.40;99.90;;;;;;5008353;28;20211;-74
2023/07/16 04:09:44;;;;;;;6.50;2.35;;;17.40;99.90;;;;;;5008260;28;20609;-73
2023/07/16 04:12:11;;;;;;;6.03;2.27;;;17.30;99.90;;;;;;5012107;28;20225;-74
2023/07/16 04:14:38;;;;;;;5.67;2.80;;;17.40;99.90;;;;;;5005816;28;20214;-74
2023/07/16 04:17:05;;;;;;;5.15;2.90;;;17.40;99.90;;;;;;4989840;28;20214;-74
2023/07/16 04:19:32;;;;;;;3.13;2.37;;;17.30;99.90;;;;;;5014300;28;20206;-74
2023/07/16 04:21:58;;;;;;;5.23;2.53;;;17.40;99.90;;;;;;5017341;28;20264;-74
2023/07/16 04:24:26;;;;;;;4.82;2.72;;;17.50;99.90;;;;;;5016933;28;20217;-74
2023/07/16 04:26:54;;;;;;;6.60;2.90;;;17.50;99.90;;;;;;5011385;28;20709;-75
2023/07/16 04:29:21;;;;;;;9.65;3.50;;;17.50;99.90;;;;;;5015987;28;20202;-74
2023/07/16 04:31:48;;;;;;;6.90;3.00;;;17.50;99.90;;;;;;5018349;28;20376;-74
2023/07/16 04:34:15;;;;;;;5.77;2.90;;;17.50;99.90;;;;;;5011992;28;20210;-75
2023/07/16 04:36:42;;;;;;;7.28;3.35;;;17.60;99.90;;;;;;5019425;28;20214;-75
2023/07/16 04:39:09;;;;;;;8.60;3.30;;;17.60;99.90;;;;;;5017127;28;20213;-75
2023/07/16 04:41:36;;;;;;;8.45;3.30;;;17.60;99.90;;;;;;5012040;28;20300;-75
2023/07/16 04:44:04;;;;;;;6.32;3.13;;;17.60;99.90;;;;;;4994167;28;20262;-75
2023/07/16 04:46:31;;;;;;;5.90;2.90;;;17.60;99.90;;;;;;5011392;28;20674;-76
2023/07/16 04:48:58;;;;;;;6.47;3.20;;;17.70;99.90;;;;;;5022084;28;20440;-75
2023/07/16 04:51:24;;;;;;;6.20;3.38;;;17.70;99.90;;;;;;5014698;28;20844;-75
2023/07/16 04:53:51;;;;;;;8.13;3.33;;;17.70;99.90;;;;;;5018326;28;20211;-76
2023/07/16 04:56:18;;;;;;;9.68;3.22;;;17.70;99.90;;;;;;5001732;28;20318;-73
2023/07/16 04:58:45;;;;;;;4.47;2.60;;;17.70;99.90;;;;;;4998167;28;20210;-75
2023/07/16 05:01:12;;;;;;;7.88;3.63;;;17.80;99.90;;;;;;4986905;28;20287;-75
2023/07/16 05:03:39;;;;;;;7.25;3.20;;;17.80;99.90;;;;;;5002872;28;20212;-76
2023/07/16 05:06:06;;;;;;;5.03;2.57;;;17.80;99.90;;;;;;4999694;28;20211;-75
2023/07/16 05:08:33;;;;;;;8.18;4.20;;;17.80;99.90;;;;;;4994634;28;20206;-73
2023/07/16 05:11:01;;;;;;;4.45;3.00;;;17.80;99.90;;;;;;5008597;28;20872;-76
2023/07/16 05:13:28;;;;;;;7.63;3.50;;;17.80;99.90;;;;;;5006762;28;20562;-74
2023/07/16 05:15:55;;;;;;;5.70;2.78;;;17.90;99.90;;;;;;5007414;28;20678;-74
2023/07/16 05:18:22;;;;;;;7.93;3.40;;;17.90;99.90;;;;;;5004392;28;20266;-75
2023/07/16 05:20:49;;;;;;;7.05;3.33;;;17.90;99.90;;;;;;5006572;28;20238;-74
2023/07/16 05:23:16;;;;;;;7.63;3.50;;;18.00;99.90;;;;;;5002814;28;20276;-74
2023/07/16 05:25:48;;;;;;;9.15;3.70;;;18.10;99.90;;;;;;4988117;28;20675;-75
2023/07/16 05:28:16;;;;;;;5.47;2.40;;;18.00;99.90;;;;;;5005175;28;20254;-75
2023/07/16 05:30:42;;;;;;;8.55;3.28;;;18.10;99.90;;;;;;5006462;28;20675;-75
2023/07/16 05:33:12;;;;;;;6.10;3.53;;;18.10;99.90;;;;;;5011113;28;20230;-74
2023/07/16 05:35:39;;;;;;;8.45;3.78;;;18.10;99.90;;;;;;5006785;28;20207;-75
2023/07/16 05:38:07;;;;;;;5.65;3.28;;;18.20;99.90;;;;;;4991950;28;20210;-75
2023/07/16 05:40:34;;;;;;;6.53;3.30;;;18.50;99.90;;;;;;5008936;28;20260;-73
2023/07/16 05:43:00;;;;;;;6.63;3.78;;;19.10;99.90;;;;;;5018975;28;20341;-74
2023/07/16 05:45:27;;;;;;;5.63;2.90;;;19.90;99.90;;;;;;5027931;28;20205;-75
2023/07/16 05:47:54;;;;;;;7.20;3.50;;;20.80;99.90;;;;;;5024030;28;20662;-75
2023/07/16 05:50:21;;;;;;;5.88;3.00;;;;;;;;;;5028955;28;20210;-76
2023/07/16 05:52:48;;;;;;;6.20;3.58;;;22.30;99.90;;;;;;5028427;28;20712;-73
2023/07/16 05:55:15;;;;;;;6.10;3.03;;;22.90;99.90;;;;;;5023164;28;20236;-75
2023/07/16 05:57:42;;;;;;;8.20;3.00;;;23.50;99.90;;;;;;5020307;28;20710;-73
2023/07/16 06:00:10;;;;;;;6.60;3.53;;;;;;;;;;5027896;28;20335;-74
2023/07/16 06:02:37;;;;;;;6.35;2.95;;;24.50;99.90;;;;;;5024962;28;20206;-75
2023/07/16 06:05:04;;;;;;;7.32;2.78;;;25.00;99.90;;;;;;5026663;28;20396;-75
2023/07/16 06:07:32;;;;;;;5.45;2.83;;;25.30;99.90;;;;;;5019294;28;20256;-75
2023/07/16 06:09:59;;;;;;;6.68;3.28;;;25.50;99.90;;;;;;5020422;28;20237;-74
2023/07/16 06:12:26;;;;;;;5.22;3.45;;;25.80;99.90;;;;;;5018582;28;20586;-75
2023/07/16 06:14:53;;;;;;;6.43;3.35;;;25.80;99.90;;;;;;5013927;28;20307;-74
2023/07/16 06:17:20;;;;;;;6.93;3.17;;;25.90;99.90;;;;;;5022950;28;20233;-75
2023/07/16 06:19:49;;;;;;;4.97;3.25;;;25.70;99.90;;;;;;5029546;28;20202;-77
2023/07/16 06:22:17;;;;;;;5.50;3.22;;;25.50;99.90;;;;;;5023575;28;20241;-75
2023/07/16 06:24:44;;;;;;;5.70;3.45;;;25.60;99.90;;;;;;5025370;28;20216;-75
2023/07/16 06:27:10;;;;;;;5.78;3.45;;;25.70;99.90;;;;;;5030255;28;20551;-74
2023/07/16 06:29:37;;;;;;;7.32;3.00;;;26.10;99.90;;;;;;5029638;28;20791;-74
2023/07/16 06:32:05;;;;;;;5.63;3.08;;;26.20;99.90;;;;;;5010243;28;20202;-78
2023/07/16 06:34:33;;;;;;;9.40;3.63;;;26.30;99.90;;;;;;5020203;28;20368;-75
2023/07/16 06:37:00;;;;;;;4.47;3.22;;;26.00;99.90;;;;;;5022070;28;20206;-76
2023/07/16 06:39:26;;;;;;;5.63;3.25;;;25.80;99.90;;;;;;5022957;28;20293;-75
2023/07/16 06:41:53;;;;;;;5.80;3.35;;;25.60;99.90;;;;;;5020562;28;20693;-77
2023/07/16 06:44:22;;;;;;;5.25;3.45;;;25.60;99.90;;;;;;5026414;28;20741;-76
2023/07/16 06:46:49;;;;;;;6.53;3.50;;;25.20;99.90;;;;;;5027352;28;20202;-77
2023/07/16 06:49:16;;;;;;;5.35;3.47;;;25.00;99.90;;;;;;5008613;28;20215;-75
2023/07/16 06:51:42;;;;;;;4.75;3.50;;;25.50;99.90;;;;;;5022581;28;20213;-76
2023/07/16 06:54:09;;;;;;;5.07;3.35;;;25.60;99.90;;;;;;5009206;28;20287;-74
2023/07/16 06:56:36;;;;;;;7.70;3.70;;;25.90;99.90;;;;;;5029269;28;20381;-74
2023/07/16 06:59:03;;;;;;;9.13;4.13;;;25.80;99.90;;;;;;5027977;28;20225;-74
2023/07/16 07:01:30;;;;;;;7.43;4.00;;;26.10;99.90;;;;;;5022543;28;20214;-76
2023/07/16 07:03:57;;;;;;;7.78;3.38;;;26.00;99.90;;;;;;5029335;28;20217;-76
2023/07/16 07:06:24;;;;;;;6.28;3.65;;;25.90;99.90;;;;;;5027205;28;20300;-75
2023/07/16 07:08:52;;;;;;;6.18;3.70;;;26.00;99.90;;;;;;5017454;28;20211;-76
2023/07/16 07:11:18;;;;;;;8.27;3.28;;;25.70;99.90;;;;;;5019518;28;20680;-74
2023/07/16 07:13:45;;;;;;;7.80;3.63;;;25.60;99.90;;;;;;5023857;28;20303;-76
2023/07/16 07:16:12;;;;;;;5.57;3.72;;;25.70;99.90;;;;;;5028965;28;20206;-75
2023/07/16 07:18:40;;;;;;;8.00;3.92;;;26.10;99.90;;;;;;5027239;28;20206;-74
2023/07/16 07:21:07;;;;;;;4.38;3.13;;;26.20;99.90;;;;;;5022322;28;20739;-75
2023/07/16 07:23:34;;;;;;;7.90;3.75;;;26.50;99.90;;;;;;5026142;28;20516;-75
2023/07/16 07:26:01;;;;;;;7.88;3.70;;;26.40;99.90;;;;;;5027265;28;20264;-74
2023/07/16 07:28:28;;;;;;;7.97;3.40;;;26.60;99.90;;;;;;5025727;28;20213;-77
2023/07/16 07:30:55;;;;;;;6.22;3.30;;;26.20;99.90;;;;;;5024691;28;20374;-76
2023/07/16 07:33:22;;;;;;;5.72;3.50;;;25.90;99.90;;;;;;5020649;28;20660;-75
2023/07/16 07:35:52;;;;;;;5.75;3.30;;;26.10;99.90;;;;;;5008504;28;20210;-74
2023/07/16 07:38:19;;;;;;;9.00;3.72;;;26.40;99.90;;;;;;5010552;28;20218;-78
2023/07/16 07:40:46;;;;;;;5.95;3.08;;;26.40;99.90;;;;;;5028261;28;20198;-75
2023/07/16 07:43:13;;;;;;;7.20;3.22;;;26.00;99.90;;;;;;5012409;28;20242;-75
2023/07/16 07:45:39;;;;;;;7.13;3.92;;;26.50;99.90;;;;;;5005009;28;20203;-75
2023/07/16 07:48:06;;;;;;;5.80;3.08;;;26.60;99.90;;;;;;4982867;28;20244;-77
2023/07/16 07:50:33;;;;;;;7.70;3.33;;;27.00;99.90;;;;;;5002025;28;20569;-75
2023/07/16 07:53:00;;;;;;;5.38;3.50;;;27.10;99.90;;;;;;5001598;28;20277;-76
2023/07/16 07:55:27;;;;;;;7.90;3.30;;;27.20;99.90;;;;;;5007031;28;20207;-75
2023/07/16 07:57:54;;;;;;;7.03;3.97;;;26.90;99.90;;;;;;5009835;28;20288;-75
2023/07/16 08:00:21;;;;;;;6.50;3.78;;;26.60;99.90;;;;;;5005017;28;20207;-74
2023/07/16 08:02:48;;;;;;;7.25;3.53;;;25.90;99.90;;;;;;5008737;28;20210;-76
2023/07/16 08:05:15;;;;;;;5.70;3.47;;;25.40;99.90;;;;;;5012956;28;20218;-73
2023/07/16 08:07:42;;;;;;;8.48;3.92;;;25.10;99.90;;;;;;5015033;28;20206;-76
2023/07/16 08:10:09;;;;;;;7.22;3.92;;;24.70;99.90;;;;;;5015311;28;20209;-76
2023/07/16 08:12:36;;;;;;;8.35;4.13;;;24.30;99.90;;;;;;5012691;28;20226;-74
2023/07/16 08:15:03;;;;;;;7.75;3.97;;;24.10;99.90;;;;;;5017968;28;20553;-74
2023/07/16 08:17:30;;;;;;;7.95;4.50;;;23.90;99.90;;;;;;5011797;28;20203;-76
2023/07/16 08:19:58;;;;;;;9.18;3.92;;;23.80;99.90;;;;;;5015012;28;20608;-74
2023/07/16 08:22:25;;;;;;;7.28;3.92;;;23.70;99.90;;;;;;5013729;28;20562;-75
2023/07/16 08:24:52;;;;;;;11.18;5.13;;;23.80;99.90;;;;;;5013765;28;20202;-73
2023/07/16 08:27:19;;;;;;;8.35;3.85;;;23.00;99.90;;;;;;5010166;28;20272;-73
2023/07/16 08:29:46;;;;;;;7.25;4.15;;;23.20;99.90;;;;;;5007916;28;20727;-75
2023/07/16 08:32:13;;;;;;;8.77;4.28;;;23.10;99.90;;;;;;5010084;28;20208;-75
2023/07/16 08:34:40;;;;;;;8.43;4.35;;;23.20;99.90;;;;;;5021325;28;20233;-76
2023/07/16 08:37:07;;;;;;;9.88;5.07;;;23.40;99.90;;;;;;5013942;28;20214;-74
2023/07/16 08:39:33;;;;;;;9.65;4.25;;;23.50;99.90;;;;;;5016874;28;20210;-73
2023/07/16 08:42:01;;;;;;;7.90;4.40;;;23.30;99.90;;;;;;5006198;28;20306;-73
2023/07/16 08:44:29;;;;;;;6.50;4.30;;;23.50;99.90;;;;;;5006476;28;20248;-74
2023/07/16 08:46:57;;;;;;;8.10;4.70;;;23.50;99.90;;;;;;5012068;28;20213;-73
2023/07/16 08:49:25;;;;;;;6.80;3.72;;;23.40;99.90;;;;;;5009935;28;20206;-74
2023/07/16 08:51:54;;;;;;;8.95;4.50;;;23.20;99.90;;;;;;5011282;28;20294;-73
2023/07/16 08:54:22;;;;;;;10.77;4.90;;;23.30;99.90;;;;;;5012023;28;20233;-73
2023/07/16 08:56:51;;;;;;;6.15;3.95;;;23.40;99.90;;;;;;5005536;28;20587;-76
2023/07/16 08:59:18;;;;;;;8.50;4.07;;;23.40;99.90;;;;;;5008440;28;20202;-76
2023/07/16 09:01:48;;;;;;;7.93;3.97;;;23.50;99.90;;;;;;5005947;28;20195;-71
2023/07/16 09:04:16;;;;;;;10.45;4.00;;;;;;;;;;5003779;28;20215;-73
2023/07/16 09:06:43;;;;;;;6.22;4.30;;;23.20;99.90;;;;;;5001604;28;20207;-72
2023/07/16 09:09:29;;;;;;;5.65;3.88;;;23.00;99.90;;;;;;5003472;28;20214;-74
2023/07/16 09:11:56;;;;;;;8.52;4.10;;;23.10;99.90;;;;;;4990350;28;20218;-74
2023/07/16 09:14:23;;;;;;;8.10;4.75;;;22.90;99.90;;;;;;5010907;28;20317;-73
2023/07/16 09:16:51;;;;;;;11.95;5.07;;;22.70;99.90;;;;;;5005536;28;20199;-74
2023/07/16 09:19:19;;;;;;;9.40;4.53;;;22.50;99.90;;;;;;5009882;28;20229;-72
2023/07/16 09:21:50;;;;;;;9.25;4.43;;;22.30;99.90;;;;;;5001096;28;20215;-73
2023/07/16 09:24:19;;;;;;;9.50;4.70;;;22.20;99.90;;;;;;5000618;28;20289;-74
2023/07/16 09:26:52;;;;;;;11.07;4.72;;;22.10;99.90;;;;;;5002275;28;20223;-74
2023/07/16 09:29:19;;;;;;;7.35;4.13;;;22.10;99.90;;;;;;5010096;28;20209;-73
2023/07/16 09:32:00;;;;;;;7.15;4.53;;;22.20;99.90;;;;;;5011342;28;20211;-74
2023/07/16 09:34:28;;;;;;;7.70;4.35;;;22.40;99.90;;;;;;5000997;28;20266;-74
2023/07/16 09:37:00;;;;;;;7.68;4.45;;;22.20;99.90;;;;;;5011536;28;20889;-73
2023/07/16 09:39:27;;;;;;;7.38;4.70;;;22.00;99.90;;;;;;5011220;28;20220;-74
2023/07/16 09:41:57;;;;;;;8.52;4.50;;;21.90;99.90;;;;;;5011055;28;20708;-73
2023/07/16 09:44:24;;;;;;;8.25;4.40;;;21.70;99.90;;;;;;5021476;28;20670;-74
2023/07/16 09:46:51;;;;;;;7.60;4.20;;;21.70;99.90;;;;;;5020664;28;20598;-73
2023/07/16 09:49:18;;;;;;;8.20;4.43;;;21.70;99.90;;;;;;5024613;28;20252;-75
2023/07/16 09:51:47;;;;;;;6.90;4.05;;;21.90;99.90;;;;;;5029392;28;20208;-74
2023/07/16 09:54:15;;;;;;;11.85;4.97;;;22.10;99.90;;;;;;5027997;28;20594;-73
2023/07/16 09:56:58;;;;;;;9.25;4.80;;;22.40;99.90;;;;;;5025343;28;20210;-73
2023/07/16 09:59:30;;;;;;;9.68;4.25;;;22.60;99.90;;;;;;5028999;28;20202;-73
2023/07/16 10:01:57;;;;;;;9.48;4.63;;;22.70;99.90;;;;;;5012998;28;20220;-72
2023/07/16 10:04:24;;;;;;;7.30;3.83;;;22.80;99.90;;;;;;5012581;28;20670;-74
2023/07/16 10:06:53;;;;;;;8.27;4.35;;;22.80;99.90;;;;;;5041058;28;20221;-73
2023/07/16 10:09:33;;;;;;;7.82;4.55;;;22.80;99.90;;;;;;5027309;28;20214;-74
2023/07/16 10:12:16;;;;;;;5.72;3.85;;;22.70;99.90;;;;;;5026908;28;20304;-75
2023/07/16 10:14:48;;;;;;;10.73;4.18;;;22.70;99.90;;;;;;5026122;28;20261;-73
2023/07/16 10:17:17;;;;;;;8.05;4.30;;;22.80;99.90;;;;;;5027193;28;20913;-73
2023/07/16 10:19:54;;;;;;;7.45;3.58;;;23.10;99.90;;;;;;5029268;28;20776;-74
2023/07/16 10:22:31;;;;;;;6.95;4.03;;;23.60;99.90;;;;;;5022077;28;20638;-73
2023/07/16 10:24:59;;;;;;;8.15;3.63;;;24.10;99.90;;;;;;5028736;28;20221;-75
2023/07/16 10:27:30;;;;;;;8.63;3.67;;;24.10;99.90;;;;;;5020743;28;20230;-72
2023/07/16 10:29:58;;;;;;;6.88;4.22;;;23.90;99.90;;;;;;5021971;28;20209;-74
2023/07/16 10:32:28;;;;;;;6.75;3.83;;;23.90;99.90;;;;;;5011327;28;20283;-73
2023/07/16 10:34:56;;;;;;;9.13;4.40;;;23.80;99.90;;;;;;5029627;28;20225;-74
2023/07/16 10:37:23;;;;;;;6.45;3.50;;;23.60;99.90;;;;;;5019725;28;20272;-73
2023/07/16 10:39:55;;;;;;;8.60;3.63;;;23.60;99.90;;;;;;5026592;28;20209;-73
2023/07/16 10:42:23;;;;;;;7.75;3.80;;;23.70;99.90;;;;;;5020890;28;20701;-75
2023/07/16 10:44:52;;;;;;;6.70;4.32;;;23.50;99.90;;;;;;5006887;28;20245;-73
2023/07/16 10:47:21;;;;;;;9.88;4.40;;;23.30;99.90;;;;;;5005072;28;20207;-74
2023/07/16 10:49:48;;;;;;;8.25;4.15;;;23.20;99.90;;;;;;5006249;28;20741;-73
2023/07/16 10:52:15;;;;;;;7.50;3.90;;;23.20;99.90;;;;;;4992059;28;20621;-73
2023/07/16 10:54:42;;;;;;;6.93;3.67;;;23.20;99.90;;;;;;5002886;28;20297;-72
2023/07/16 10:57:16;;;;;;;8.95;3.78;;;23.20;99.90;;;;;;4997230;28;20674;-73
2023/07/16 10:59:44;;;;;;;7.63;4.15;;;23.10;99.90;;;;;;4992296;28;20241;-74
2023/07/16 11:02:13;;;;;;;8.20;4.00;;;23.10;99.90;;;;;;5001733;28;20316;-72
2023/07/16 11:04:41;;;;;;;7.43;3.80;;;23.10;99.90;;;;;;5000617;28;20238;-72
2023/07/16 11:07:11;;;;;;;6.82;4.13;;;23.10;99.90;;;;;;5008802;28;20250;-73
2023/07/16 11:09:50;;;;;;;9.40;4.30;;;23.10;99.90;;;;;;5006836;28;20260;-73
2023/07/16 11:12:24;;;;;;;7.15;3.97;;;23.20;99.90;;;;;;4980906;28;20223;-73
2023/07/16 11:14:53;;;;;;;12.25;4.40;;;23.10;99.90;;;;;;5002676;28;20219;-74
2023/07/16 11:17:22;;;;;;;7.43;3.95;;;22.90;99.90;;;;;;5007173;28;20294;-75
2023/07/16 11:19:51;;;;;;;8.95;5.00;;;22.60;99.90;;;;;;5007174;28;20203;-75
2023/07/16 11:22:18;;;;;;;7.97;4.13;;;22.50;99.90;;;;;;5005390;28;20578;-72
2023/07/16 11:24:47;;;;;;;8.73;4.22;;;22.30;99.90;;;;;;5008135;28;20202;-74
2023/07/16 11:27:21;;;;;;;7.88;4.13;;;22.20;99.90;;;;;;5008210;28;20225;-73
2023/07/16 11:29:53;;;;;;;7.32;3.80;;;22.20;99.90;;;;;;4986473;28;20201;-75
2023/07/16 11:32:43;;;;;;;10.82;3.92;;;22.30;99.90;;;;;;5003045;28;20269;-74
2023/07/16 11:35:15;;;;;;;6.60;4.03;;;22.30;99.90;;;;;;4999465;28;20234;-72
2023/07/16 11:37:43;;;;;;;7.80;3.83;;;22.40;99.90;;;;;;5005454;28;20207;-73
2023/07/16 11:40:11;;;;;;;7.10;3.95;;;22.50;99.90;;;;;;5002484;28;20260;-74
2023/07/16 11:42:39;;;;;;;6.22;4.20;;;22.60;99.90;;;;;;5009225;28;20241;-75
2023/07/16 11:45:16;;;;;;;9.27;4.15;;;22.70;99.90;;;;;;5006420;28;20864;-74
2023/07/16 11:47:44;;;;;;;9.07;3.88;;;22.80;99.90;;;;;;5004908;28;20199;-73
2023/07/16 11:50:11;;;;;;;8.88;4.05;;;22.90;99.90;;;;;;5002417;28;20497;-74
2023/07/16 11:52:39;;;;;;;9.43;3.88;;;23.10;99.90;;;;;;5006280;28;20729;-74
2023/07/16 11:55:06;;;;;;;8.73;3.90;;;23.10;99.90;;;;;;5004001;28;20820;-73
2023/07/16 11:57:33;;;;;;;8.18;3.80;;;23.10;99.90;;;;;;5005846;28;20595;-73
2023/07/16 12:00:00;;;;;;;10.40;3.83;;;23.20;99.90;;;;;;5004309;28;20729;-74
2023/07/16 12:02:28;;;;;;;8.40;3.42;;;23.20;99.90;;;;;;5008550;28;20736;-73
2023/07/16 12:04:55;;;;;;;6.82;3.22;;;23.40;99.90;;;;;;5000656;28;20702;-74
2023/07/16 12:07:38;;;;;;;7.90;3.70;;;23.50;99.90;;;;;;4989376;28;20214;-74
2023/07/16 12:10:06;;;;;;;6.78;3.22;;;23.60;99.90;;;;;;5001623;28;20210;-73
2023/07/16 12:12:37;;;;;;;6.80;3.22;;;23.80;99.90;;;;;;4999489;28;20610;-73
2023/07/16 12:15:06;;;;;;;6.30;2.92;;;24.00;99.90;;;;;;5007053;28;20313;-73
2023/07/16 12:17:34;;;;;;;8.15;3.45;;;24.00;99.90;;;;;;5003969;28;20290;-74
2023/07/16 12:20:04;;;;;;;6.22;3.10;;;24.10;99.90;;;;;;5006827;28;20289;-73
2023/07/16 12:22:31;;;;;;;6.20;3.35;;;24.10;99.90;;;;;;5006579;28;20655;-73
2023/07/16 12:24:58;;;;;;;5.43;3.25;;;24.00;99.90;;;;;;5003000;28;20211;-73
2023/07/16 12:27:25;;;;;;;6.50;3.72;;;23.60;99.90;;;;;;5003986;28;20225;-73
2023/07/16 12:29:52;;;;;;;5.53;3.30;;;23.50;99.90;;;;;;5008732;28;20210;-73
2023/07/16 12:32:20;;;;;;;6.50;3.60;;;23.40;99.90;;;;;;5002312;28;20585;-73
2023/07/16 12:34:47;;;;;;;6.40;3.47;;;23.50;99.90;;;;;;5001730;28;20342;-74
2023/07/16 12:37:14;;;;;;;8.02;3.83;;;23.40;99.90;;;;;;5003973;28;20207;-72
2023/07/16 12:39:40;;;;;;;9.57;4.38;;;23.40;99.90;;;;;;5000977;28;20229;-74
2023/07/16 12:42:08;;;;;;;7.95;3.70;;;23.10;99.90;;;;;;5013448;28;20308;-75
2023/07/16 12:44:35;;;;;;;6.22;3.72;;;23.10;99.90;;;;;;5023962;28;20293;-73
2023/07/16 12:47:02;;;;;;;9.75;3.95;;;23.10;99.90;;;;;;5027037;28;20747;-73
2023/07/16 12:49:29;;;;;;;9.63;4.55;;;23.20;99.90;;;;;;5025789;28;20210;-74
2023/07/16 12:51:56;;;;;;;6.05;3.40;;;23.60;99.90;;;;;;5027869;28;20209;-74
2023/07/16 12:54:23;;;;;;;6.65;4.03;;;23.80;99.90;;;;;;5026546;28;20222;-74